Soaring Guidance
Issued by NWS Reno, NV

Home | Current Version | Previous Version | Text Only | Print | Product List | Glossary On
Versions: 1 2 3 4 5 6 7 8 9 10 11 12 13
000
UXUS97 KREV 261346
SRGREV

SOARING FORECAST
NATIONAL WEATHER SERVICE - RENO NV
700 AM PDT TUE JUL 26 2016

THIS SOARING FORECAST IS FOR THE EASTERN SIERRA AND WESTERN NEVADA
WITH SPECIFIC INDICES FOR THE GREATER RENO AREA.

THIS FORECAST IS PREPARED DAILY BY 700 AM AND IS NOT UPDATED.

FOR CURRENT FLIGHT CONDITIONS...FORECASTS...AND ADVISORIES...ACCESS
YOUR LOCAL BRIEFING OUTLET OR FLIGHT SERVICE STATION.

*******************************************************************
FORECASTED LOCAL INDICES FOR RENO:        TODAY     YESTERDAY
FORECASTED MAX TEMP AT RENO (DEG F).....    101          97
FORECASTED TRIGGER TEMPERATURE (DEG F)..     81          81
   EXCEEDED YESTERDAY BY 1055 AM PDT
FORECASTED MAXIMUM ALTITUDE (FT MSL)....  16200       15800
FORECASTED SOARING INDEX (FPM)..........    966         954
FORECASTED K-INDEX.........VALID 18Z....    -13         -11
FORECASTED K-INDEX.........VALID 00Z....      0           1
FORECASTED LIFTED INDEX....VALID 18Z....     10           8
FORECASTED LIFTED INDEX....VALID 00Z....      6           7

AFTERNOON WINDS ALOFT FORECAST
MSL (FT) WIND/TEMP
9000  2808/+21
10000 2708/+18
12000 2707/+12
14000 2507/+06
16000 2407/+00
18000 2408/-05
24000 2812/-17
30000 3125/-32
34000 2927/-41
39000 2831/-51

SLIDE MOUNTAIN DATA:
     DATE       TIME     TEMP  DEWPT   RH         WIND (MPH)
                        (F)   (F)           | DIR  SPEED GUST
2016-07-26    05:50      56     6     13    | 226    7   11
2016-07-26    05:30      56     6     13    | 235    7   11
2016-07-26    05:20      56     2     11    | 250    6   10
2016-07-26    05:00      56     0     10    | 252    6    9

RENO TAF FORECAST:
KRNO 261121Z 2612/2712 VRB03KT P6SM SKC
     FM262200 29010G18KT 6SM HZ SKC
     FM270500 31009KT P6SM SKC
     FM270900 VRB03KT P6SM SKC

CARSON CITY TAF FORECAST:
KCXP 261121Z 2612/2712 VRB03KT P6SM SKC
     FM262100 27012G19KT 6SM HZ SKC
     FM270300 28007KT P6SM SKC
     FM270700 VRB03KT P6SM SKC

OUTLOOK FOR THE RENO-CARSON CITY-MINDEN AREA:
.WEDNESDAY...SUNNY. HAZE IN THE AFTERNOON. HIGHS 99 TO 104. LIGHT
WINDS.

SUNRISE AND SUNSET
JULY 26 2016..........SUNRISE   554 AM PDT   SUNSET   817 PM PDT
JULY 27 2016..........SUNRISE   555 AM PDT   SUNSET   816 PM PDT


USA.gov is the U.S. government's official web portal to all federal, state and local government web resources and services.